createdAt,value
2019-03-12T00:00:36.335Z,1014.84
2019-03-12T00:01:36.312Z,1014.81
2019-03-12T00:02:36.304Z,1014.79
2019-03-12T00:03:36.293Z,1014.81
2019-03-12T00:04:36.278Z,1014.84
2019-03-12T00:05:36.282Z,1014.84
2019-03-12T00:06:36.255Z,1014.86
2019-03-12T00:07:36.244Z,1014.84
2019-03-12T00:08:36.233Z,1014.84
2019-03-12T00:09:36.222Z,1014.84
2019-03-12T00:10:36.225Z,1014.82
2019-03-12T00:11:36.200Z,1014.77
2019-03-12T00:12:36.189Z,1014.81
2019-03-12T00:13:36.179Z,1014.79
2019-03-12T00:14:36.176Z,1014.79
2019-03-12T00:15:36.184Z,1014.76
2019-03-12T00:16:36.144Z,1014.78
2019-03-12T00:17:36.134Z,1014.76
2019-03-12T00:18:36.121Z,1014.77
2019-03-12T00:19:36.110Z,1014.77
2019-03-12T00:20:36.106Z,1014.73
2019-03-12T00:21:36.098Z,1014.79
2019-03-12T00:22:36.076Z,1014.83
2019-03-12T00:23:36.064Z,1014.81
2019-03-12T00:24:36.053Z,1014.81
2019-03-12T00:25:36.043Z,1014.80
2019-03-12T00:26:36.045Z,1014.84
2019-03-12T00:27:36.019Z,1014.84
2019-03-12T00:28:36.015Z,1014.78
2019-03-12T00:29:35.997Z,1014.82
2019-03-12T00:30:35.987Z,1014.78
2019-03-12T00:31:35.989Z,1014.83
2019-03-12T00:32:35.967Z,1014.82
2019-03-12T00:33:35.952Z,1014.81
2019-03-12T00:34:35.941Z,1014.82
2019-03-12T00:35:35.930Z,1014.82
2019-03-12T00:36:35.932Z,1014.81
2019-03-12T00:37:35.908Z,1014.77
2019-03-12T00:38:35.896Z,1014.83
2019-03-12T00:39:35.887Z,1014.80
2019-03-12T00:40:35.873Z,1014.74
2019-03-12T00:41:35.875Z,1014.72
2019-03-12T00:42:35.853Z,1014.74
2019-03-12T00:43:35.855Z,1014.74
2019-03-12T00:44:35.830Z,1014.75
2019-03-12T00:45:35.822Z,1014.77
2019-03-12T00:46:35.817Z,1014.77
2019-03-12T00:47:35.796Z,1014.73
2019-03-12T00:48:35.787Z,1014.78
2019-03-12T00:49:35.867Z,1014.79
2019-03-12T00:50:35.761Z,1014.77
2019-03-12T00:51:35.766Z,1014.73
2019-03-12T00:52:35.738Z,1014.73
2019-03-12T00:53:35.727Z,1014.79
2019-03-12T00:54:35.715Z,1014.75
2019-03-12T00:55:35.704Z,1014.72
2019-03-12T00:56:35.723Z,1014.78
2019-03-12T00:57:35.683Z,1014.78
2019-03-12T00:58:35.670Z,1014.82
2019-03-12T00:59:35.659Z,1014.82
2019-03-12T01:00:35.649Z,1014.87
2019-03-12T01:01:35.649Z,1014.84
2019-03-12T01:02:35.625Z,1014.88
2019-03-12T01:03:35.652Z,1014.86
2019-03-12T01:04:35.603Z,1014.89
2019-03-12T01:05:35.604Z,1014.87
2019-03-12T01:06:35.607Z,1014.83
2019-03-12T01:07:35.574Z,1014.82
2019-03-12T01:08:35.558Z,1014.82
2019-03-12T01:09:35.546Z,1014.82
2019-03-12T01:10:35.536Z,1014.87
2019-03-12T01:11:35.535Z,1014.91
2019-03-12T01:12:35.518Z,1014.93
2019-03-12T01:13:35.504Z,1014.97
2019-03-12T01:14:35.490Z,1015.03
2019-03-12T01:15:35.485Z,1015.01
2019-03-12T01:16:35.480Z,1014.95
2019-03-12T01:17:42.467Z,1014.98
2019-03-12T01:18:35.446Z,1014.95
2019-03-12T01:19:35.447Z,1014.99
2019-03-12T01:20:35.422Z,1014.99
2019-03-12T01:21:35.425Z,1014.97
2019-03-12T01:22:35.400Z,1014.98
2019-03-12T01:23:35.388Z,1014.98
2019-03-12T01:24:35.378Z,1014.96
2019-03-12T01:25:35.369Z,1014.97
2019-03-12T01:26:35.366Z,1014.93
2019-03-12T01:27:35.344Z,1014.93
2019-03-12T01:28:35.333Z,1014.98
2019-03-12T01:29:35.343Z,1014.88
2019-03-12T01:30:35.312Z,1014.88
2019-03-12T01:31:35.311Z,1014.90
2019-03-12T01:32:35.287Z,1014.86
2019-03-12T01:33:35.285Z,1014.84
2019-03-12T01:34:35.269Z,1014.82
2019-03-12T01:35:35.259Z,1014.82
2019-03-12T01:36:35.255Z,1014.86
2019-03-12T01:37:35.231Z,1014.87
2019-03-12T01:38:35.222Z,1014.88
2019-03-12T01:39:35.211Z,1014.86
2019-03-12T01:40:35.201Z,1014.81
2019-03-12T01:41:35.231Z,1014.78
2019-03-12T01:42:35.192Z,1014.76
2019-03-12T01:43:35.166Z,1014.70
2019-03-12T01:44:35.153Z,1014.69
2019-03-12T01:45:35.142Z,1014.69
2019-03-12T01:46:35.130Z,1014.73
2019-03-12T01:47:35.139Z,1014.73
2019-03-12T01:48:35.115Z,1014.75
2019-03-12T01:49:35.102Z,1014.74
2019-03-12T01:50:35.089Z,1014.73
2019-03-12T01:51:35.079Z,1014.67
2019-03-12T01:52:35.090Z,1014.60
2019-03-12T01:53:35.054Z,1014.55
2019-03-12T01:54:35.040Z,1014.57
2019-03-12T01:55:35.033Z,1014.57
2019-03-12T01:56:35.019Z,1014.58
2019-03-12T01:57:35.019Z,1014.60
2019-03-12T01:58:34.997Z,1014.57
2019-03-12T01:59:34.985Z,1014.57
2019-03-12T02:00:34.977Z,1014.57
2019-03-12T02:01:34.962Z,1014.51
2019-03-12T02:02:34.962Z,1014.56
2019-03-12T02:03:34.945Z,1014.56
2019-03-12T02:04:34.928Z,1014.56
2019-03-12T02:05:34.928Z,1014.58
2019-03-12T02:06:34.906Z,1014.52
2019-03-12T02:07:34.908Z,1014.51
2019-03-12T02:08:34.890Z,1014.46
2019-03-12T02:09:34.873Z,1014.49
2019-03-12T02:10:34.862Z,1014.42
2019-03-12T02:11:34.854Z,1014.37
2019-03-12T02:12:34.857Z,1014.40
2019-03-12T02:13:34.827Z,1014.39
2019-03-12T02:14:34.820Z,1014.39
2019-03-12T02:15:34.808Z,1014.36
2019-03-12T02:16:35.117Z,1014.37
2019-03-12T02:17:34.797Z,1014.35
2019-03-12T02:18:34.777Z,1014.33
2019-03-12T02:19:34.760Z,1014.39
2019-03-12T02:20:34.749Z,1014.34
2019-03-12T02:21:34.738Z,1014.29
2019-03-12T02:22:34.739Z,1014.32
2019-03-12T02:23:34.715Z,1014.28
2019-03-12T02:24:34.707Z,1014.29
2019-03-12T02:25:34.700Z,1014.30
2019-03-12T02:26:34.738Z,1014.28
2019-03-12T02:27:34.684Z,1014.33
2019-03-12T02:28:34.679Z,1014.35
2019-03-12T02:29:34.652Z,1014.37
2019-03-12T02:30:34.641Z,1014.37
2019-03-12T02:31:34.626Z,1014.37
2019-03-12T02:32:34.628Z,1014.36
2019-03-12T02:33:34.615Z,1014.33
2019-03-12T02:34:34.598Z,1014.32
2019-03-12T02:35:34.591Z,1014.37
2019-03-12T02:36:34.580Z,1014.31
2019-03-12T02:37:34.573Z,1014.31
2019-03-12T02:38:34.653Z,1014.28
2019-03-12T02:39:34.537Z,1014.29
2019-03-12T02:40:34.527Z,1014.25
2019-03-12T02:41:34.526Z,1014.26
2019-03-12T02:42:34.518Z,1014.28
2019-03-12T02:43:34.492Z,1014.21
2019-03-12T02:44:34.483Z,1014.23
2019-03-12T02:45:34.471Z,1014.19
2019-03-12T02:46:34.460Z,1014.17
2019-03-12T02:47:34.461Z,1014.17
2019-03-12T02:48:34.441Z,1014.15
2019-03-12T02:49:34.434Z,1014.15
2019-03-12T02:50:34.414Z,1014.13
2019-03-12T02:51:34.421Z,1014.15
2019-03-12T02:52:34.404Z,1014.13
2019-03-12T02:53:34.394Z,1014.08
2019-03-12T02:54:34.375Z,1014.09
2019-03-12T02:55:34.362Z,1014.08
2019-03-12T02:56:34.349Z,1014.04
2019-03-12T02:57:34.352Z,1014.04
2019-03-12T02:58:34.361Z,1014.05
2019-03-12T02:59:34.312Z,1014.03
2019-03-12T03:00:34.302Z,1014.03
2019-03-12T03:01:34.380Z,1014.01
2019-03-12T03:02:34.319Z,1014.00
2019-03-12T03:03:34.269Z,1014.03
2019-03-12T03:04:34.271Z,1014.01
2019-03-12T03:05:34.246Z,1014.07
2019-03-12T03:06:34.235Z,1014.01
2019-03-12T03:07:34.235Z,1014.02
2019-03-12T03:08:34.213Z,1014.03
2019-03-12T03:09:34.202Z,1013.96
2019-03-12T03:10:34.195Z,1013.91
2019-03-12T03:11:34.178Z,1013.94
2019-03-12T03:12:34.190Z,1013.99
2019-03-12T03:13:34.163Z,1013.96
2019-03-12T03:14:34.163Z,1014.00
2019-03-12T03:15:34.221Z,1014.02
2019-03-12T03:16:34.123Z,1013.99
2019-03-12T03:17:34.110Z,1014.03
2019-03-12T03:18:34.113Z,1013.99
2019-03-12T03:19:34.088Z,1013.98
2019-03-12T03:20:34.083Z,1013.98
2019-03-12T03:21:34.072Z,1013.95
2019-03-12T03:22:34.056Z,1013.87
2019-03-12T03:23:34.066Z,1013.90
2019-03-12T03:24:34.043Z,1013.85
2019-03-12T03:25:34.032Z,1013.92
2019-03-12T03:26:34.009Z,1013.93
2019-03-12T03:27:34.020Z,1013.87
2019-03-12T03:28:34.002Z,1013.83
2019-03-12T03:29:33.977Z,1013.84
2019-03-12T03:30:34.015Z,1013.78
2019-03-12T03:31:33.960Z,1013.85
2019-03-12T03:32:33.946Z,1013.75
2019-03-12T03:33:33.967Z,1013.77
2019-03-12T03:34:33.921Z,1013.76
2019-03-12T03:35:33.908Z,1013.73
2019-03-12T03:36:33.904Z,1013.77
2019-03-12T03:37:33.914Z,1013.74
2019-03-12T03:38:33.887Z,1013.81
2019-03-12T03:39:33.882Z,1013.81
2019-03-12T03:40:33.853Z,1013.78
2019-03-12T03:41:34.994Z,1013.79
2019-03-12T03:42:33.847Z,1013.74
2019-03-12T03:43:33.861Z,1013.74
2019-03-12T03:44:33.808Z,1013.74
2019-03-12T03:45:33.817Z,1013.72
2019-03-12T03:46:33.786Z,1013.73
2019-03-12T03:47:33.774Z,1013.65
2019-03-12T03:48:33.775Z,1013.68
2019-03-12T03:49:33.752Z,1013.70
2019-03-12T03:50:33.743Z,1013.64
2019-03-12T03:51:33.735Z,1013.68
2019-03-12T03:52:33.719Z,1013.65
2019-03-12T03:53:33.723Z,1013.65
2019-03-12T03:54:33.695Z,1013.66
2019-03-12T03:55:33.684Z,1013.63
2019-03-12T03:56:33.674Z,1013.63
2019-03-12T03:57:33.663Z,1013.63
2019-03-12T03:58:33.671Z,1013.64
2019-03-12T03:59:33.654Z,1013.58
2019-03-12T04:00:33.628Z,1013.60
2019-03-12T04:01:33.620Z,1013.57
2019-03-12T04:02:33.605Z,1013.53
2019-03-12T04:03:33.609Z,1013.51
2019-03-12T04:04:33.582Z,1013.54
2019-03-12T04:05:33.569Z,1013.52
2019-03-12T04:06:34.434Z,1013.53
2019-03-12T04:07:33.548Z,1013.56
2019-03-12T04:08:33.551Z,1013.57
2019-03-12T04:09:33.526Z,1013.52
2019-03-12T04:10:33.515Z,1013.50
2019-03-12T04:11:33.506Z,1013.53
2019-03-12T04:12:33.501Z,1013.56
2019-03-12T04:13:33.494Z,1013.53
2019-03-12T04:14:33.473Z,1013.56
2019-03-12T04:15:33.461Z,1013.53
2019-03-12T04:16:33.449Z,1013.51
2019-03-12T04:17:33.439Z,1013.51
2019-03-12T04:18:33.437Z,1013.45
2019-03-12T04:19:33.413Z,1013.45
2019-03-12T04:20:33.403Z,1013.50
2019-03-12T04:21:33.396Z,1013.53
2019-03-12T04:22:33.400Z,1013.51
2019-03-12T04:23:33.385Z,1013.59
2019-03-12T04:24:33.357Z,1013.55
2019-03-12T04:25:33.370Z,1013.60
2019-03-12T04:26:33.336Z,1013.60
2019-03-12T04:27:33.325Z,1013.58
2019-03-12T04:28:33.323Z,1013.59
2019-03-12T04:29:33.300Z,1013.56
2019-03-12T04:30:33.289Z,1013.54
2019-03-12T04:31:33.279Z,1013.50
2019-03-12T04:32:33.269Z,1013.56
2019-03-12T04:33:33.296Z,1013.56
2019-03-12T04:34:33.244Z,1013.57
2019-03-12T04:35:33.244Z,1013.58
2019-03-12T04:36:33.221Z,1013.56
2019-03-12T04:37:33.210Z,1013.56
2019-03-12T04:38:33.212Z,1013.56
2019-03-12T04:39:33.190Z,1013.59
2019-03-12T04:40:33.180Z,1013.54
2019-03-12T04:41:33.165Z,1013.57
2019-03-12T04:42:33.155Z,1013.57
2019-03-12T04:43:33.143Z,1013.56
2019-03-12T04:44:33.143Z,1013.60
2019-03-12T04:45:33.135Z,1013.56
2019-03-12T04:46:33.110Z,1013.52
2019-03-12T04:47:33.097Z,1013.51
2019-03-12T04:48:33.086Z,1013.51
2019-03-12T04:49:33.088Z,1013.49
2019-03-12T04:50:33.065Z,1013.49
2019-03-12T04:51:33.054Z,1013.49
2019-03-12T04:52:33.044Z,1013.45
2019-03-12T04:53:33.030Z,1013.40
2019-03-12T04:54:33.030Z,1013.37
2019-03-12T04:55:33.009Z,1013.32
2019-03-12T04:56:32.998Z,1013.37
2019-03-12T04:57:32.986Z,1013.37
2019-03-12T04:58:32.987Z,1013.32
2019-03-12T04:59:32.977Z,1013.34
2019-03-12T05:00:32.954Z,1013.29
2019-03-12T05:01:32.943Z,1013.32
2019-03-12T05:02:32.948Z,1013.32
2019-03-12T05:03:32.918Z,1013.32
2019-03-12T05:04:32.918Z,1013.30
2019-03-12T05:05:32.896Z,1013.29
2019-03-12T05:06:32.884Z,1013.21
2019-03-12T05:07:32.881Z,1013.14
2019-03-12T05:08:32.907Z,1013.17
2019-03-12T05:09:32.864Z,1013.12
2019-03-12T05:10:32.905Z,1013.11
2019-03-12T05:11:32.828Z,1013.13
2019-03-12T05:12:32.816Z,1013.09
2019-03-12T05:13:32.868Z,1013.11
2019-03-12T05:14:32.807Z,1013.07
2019-03-12T05:15:32.783Z,1013.09
2019-03-12T05:16:32.791Z,1013.10
2019-03-12T05:17:32.760Z,1013.08
2019-03-12T05:18:32.750Z,1013.05
2019-03-12T05:19:32.803Z,1013.06
2019-03-12T05:20:32.727Z,1013.03
2019-03-12T05:21:32.738Z,1013.04
2019-03-12T05:22:32.705Z,1013.03
2019-03-12T05:23:32.693Z,1013.06
2019-03-12T05:24:32.706Z,1013.08
2019-03-12T05:25:32.671Z,1013.08
2019-03-12T05:26:32.660Z,1013.05
2019-03-12T05:27:32.647Z,1012.98
2019-03-12T05:28:32.637Z,1012.99
2019-03-12T05:29:32.638Z,1012.96
2019-03-12T05:30:32.614Z,1012.97
2019-03-12T05:31:32.604Z,1012.94
2019-03-12T05:32:32.591Z,1012.96
2019-03-12T05:33:32.617Z,1012.96
2019-03-12T05:34:32.584Z,1012.92
2019-03-12T05:35:32.560Z,1012.90
2019-03-12T05:36:32.575Z,1012.80
2019-03-12T05:37:32.540Z,1012.75
2019-03-12T05:38:32.526Z,1012.76
2019-03-12T05:39:32.524Z,1012.74
2019-03-12T05:40:32.503Z,1012.68
2019-03-12T05:41:32.510Z,1012.66
2019-03-12T05:42:32.479Z,1012.64
2019-03-12T05:43:32.468Z,1012.65
2019-03-12T05:44:32.489Z,1012.60
2019-03-12T05:45:32.445Z,1012.58
2019-03-12T05:46:32.437Z,1012.57
2019-03-12T05:47:32.427Z,1012.53
2019-03-12T05:48:32.412Z,1012.54
2019-03-12T05:49:32.415Z,1012.52
2019-03-12T05:50:32.389Z,1012.45
2019-03-12T05:51:32.379Z,1012.50
2019-03-12T05:52:32.367Z,1012.46
2019-03-12T05:53:32.355Z,1012.47
2019-03-12T05:54:32.374Z,1012.42
2019-03-12T05:55:32.333Z,1012.41
2019-03-12T05:56:32.327Z,1012.41
2019-03-12T05:57:32.312Z,1012.42
2019-03-12T05:58:32.300Z,1012.39
2019-03-12T05:59:32.310Z,1012.39
2019-03-12T06:00:32.277Z,1012.39
2019-03-12T06:01:32.267Z,1012.35
2019-03-12T06:02:32.255Z,1012.33
2019-03-12T06:03:32.251Z,1012.35
2019-03-12T06:04:32.402Z,1012.32
2019-03-12T06:05:32.222Z,1012.34
2019-03-12T06:06:32.211Z,1012.33
2019-03-12T06:07:32.219Z,1012.27
2019-03-12T06:08:32.188Z,1012.32
2019-03-12T06:09:32.179Z,1012.30
2019-03-12T06:10:32.179Z,1012.24
2019-03-12T06:11:32.156Z,1012.22
2019-03-12T06:12:32.144Z,1012.23
2019-03-12T06:13:32.131Z,1012.21
2019-03-12T06:14:32.120Z,1012.26
2019-03-12T06:15:32.119Z,1012.24
2019-03-12T06:16:32.101Z,1012.21
2019-03-12T06:17:32.086Z,1012.24
2019-03-12T06:18:32.079Z,1012.16
2019-03-12T06:19:32.119Z,1012.17
2019-03-12T06:20:32.078Z,1012.07
2019-03-12T06:21:32.042Z,1012.08
2019-03-12T06:22:32.030Z,1012.08
2019-03-12T06:23:32.019Z,1012.05
2019-03-12T06:24:32.010Z,1012.06
2019-03-12T06:25:32.008Z,1012.03
2019-03-12T06:26:31.986Z,1011.98
2019-03-12T06:27:31.989Z,1011.99
2019-03-12T06:28:31.964Z,1011.94
2019-03-12T06:29:31.952Z,1011.95
2019-03-12T06:30:31.967Z,1011.89
2019-03-12T06:31:31.941Z,1011.92
2019-03-12T06:32:31.918Z,1011.91
2019-03-12T06:33:31.908Z,1011.92
2019-03-12T06:34:31.894Z,1011.88
2019-03-12T06:35:31.894Z,1011.88
2019-03-12T06:36:31.872Z,1011.89
2019-03-12T06:37:31.864Z,1011.86
2019-03-12T06:38:31.849Z,1011.81
2019-03-12T06:39:31.839Z,1011.82
2019-03-12T06:40:31.839Z,1011.81
2019-03-12T06:41:31.816Z,1011.79
2019-03-12T06:42:31.805Z,1011.79
2019-03-12T06:43:31.816Z,1011.82
2019-03-12T06:44:31.781Z,1011.79
2019-03-12T06:45:31.783Z,1011.81
2019-03-12T06:46:31.765Z,1011.76
2019-03-12T06:47:31.748Z,1011.71
2019-03-12T06:48:31.736Z,1011.69
2019-03-12T06:49:31.724Z,1011.69
2019-03-12T06:50:31.727Z,1011.69
2019-03-12T06:51:31.703Z,1011.72
2019-03-12T06:52:31.694Z,1011.66
2019-03-12T06:53:31.701Z,1011.68
2019-03-12T06:54:31.672Z,1011.64
2019-03-12T06:55:31.669Z,1011.64
2019-03-12T06:56:31.654Z,1011.64
2019-03-12T06:57:31.635Z,1011.61
2019-03-12T06:58:31.628Z,1011.58
2019-03-12T06:59:31.611Z,1011.56
2019-03-12T07:00:31.618Z,1011.53
2019-03-12T07:01:31.592Z,1011.48
2019-03-12T07:02:31.581Z,1011.48
2019-03-12T07:03:31.569Z,1011.50
2019-03-12T07:04:31.556Z,1011.41
2019-03-12T07:05:31.571Z,1011.41
2019-03-12T07:06:31.543Z,1011.39
2019-03-12T07:07:31.522Z,1011.37
2019-03-12T07:08:31.511Z,1011.34
2019-03-12T07:09:31.503Z,1011.35
2019-03-12T07:10:31.515Z,1011.34
2019-03-12T07:11:31.477Z,1011.32
2019-03-12T07:12:31.466Z,1011.28
2019-03-12T07:13:32.475Z,1011.27
2019-03-12T07:14:31.442Z,1011.23
2019-03-12T07:15:31.443Z,1011.26
2019-03-12T07:16:31.426Z,1011.24
2019-03-12T07:17:31.417Z,1011.24
2019-03-12T07:18:31.399Z,1011.21
2019-03-12T07:19:31.393Z,1011.21
2019-03-12T07:20:31.423Z,1011.13
2019-03-12T07:21:31.370Z,1011.14
2019-03-12T07:22:31.354Z,1011.11
2019-03-12T07:23:31.342Z,1011.15
2019-03-12T07:24:31.330Z,1011.13
2019-03-12T07:25:31.332Z,1011.14
2019-03-12T07:26:31.308Z,1011.13
2019-03-12T07:27:31.297Z,1011.05
2019-03-12T07:28:31.286Z,1011.07
2019-03-12T07:29:31.364Z,1011.03
2019-03-12T07:30:31.299Z,1011.00
2019-03-12T07:31:32.121Z,1010.98
2019-03-12T07:32:31.304Z,1010.96
2019-03-12T07:33:32.010Z,1010.91
2019-03-12T07:34:36.527Z,1010.89
2019-03-12T07:35:32.304Z,1010.88
2019-03-12T07:36:31.226Z,1010.86
2019-03-12T07:37:31.209Z,1010.86
2019-03-12T07:38:31.188Z,1010.81
2019-03-12T07:39:31.208Z,1010.81
2019-03-12T07:40:31.176Z,1010.83
2019-03-12T07:41:32.682Z,1010.77
2019-03-12T07:42:31.167Z,1010.76
2019-03-12T07:43:31.396Z,1010.72
2019-03-12T07:44:31.129Z,1010.69
2019-03-12T07:45:31.130Z,1010.68
2019-03-12T07:46:31.133Z,1010.66
2019-03-12T07:47:35.622Z,1010.65
2019-03-12T07:48:32.083Z,1010.66
2019-03-12T07:49:31.081Z,1010.60
2019-03-12T07:50:31.108Z,1010.61
2019-03-12T07:51:31.048Z,1010.60
2019-03-12T07:52:31.029Z,1010.52
2019-03-12T07:53:31.023Z,1010.54
2019-03-12T07:54:31.006Z,1010.54
2019-03-12T07:55:30.988Z,1010.50
2019-03-12T07:56:31.035Z,1010.50
2019-03-12T07:57:30.986Z,1010.47
2019-03-12T07:58:35.768Z,1010.45
2019-03-12T07:59:31.960Z,1010.47
2019-03-12T08:00:30.950Z,1010.41
2019-03-12T08:01:30.933Z,1010.43
2019-03-12T08:02:30.907Z,1010.37
2019-03-12T08:03:30.910Z,1010.34
2019-03-12T08:04:30.902Z,1010.31
2019-03-12T08:05:30.915Z,1010.34
2019-03-12T08:06:30.900Z,1010.30
2019-03-12T08:07:30.851Z,1010.22
2019-03-12T08:08:30.839Z,1010.23
2019-03-12T08:09:30.826Z,1010.27
2019-03-12T08:10:33.608Z,1010.27
2019-03-12T08:11:31.034Z,1010.18
2019-03-12T08:12:30.812Z,1010.24
2019-03-12T08:13:30.784Z,1010.17
2019-03-12T08:14:30.788Z,1010.20
2019-03-12T08:15:30.779Z,1010.22
2019-03-12T08:16:30.772Z,1010.18
2019-03-12T08:17:30.757Z,1010.18
2019-03-12T08:18:30.727Z,1010.19
2019-03-12T08:19:30.734Z,1010.13
2019-03-12T08:20:30.713Z,1010.16
2019-03-12T08:21:31.014Z,1010.16
2019-03-12T08:22:30.682Z,1010.13
2019-03-12T08:23:30.692Z,1010.10
2019-03-12T08:24:30.675Z,1010.02
2019-03-12T08:25:30.704Z,1010.04
2019-03-12T08:26:30.648Z,1010.02
2019-03-12T08:27:30.635Z,1010.03
2019-03-12T08:28:30.634Z,1010.02
2019-03-12T08:29:30.608Z,1009.95
2019-03-12T08:30:30.610Z,1009.95
2019-03-12T08:31:31.017Z,1009.96
2019-03-12T08:32:30.666Z,1009.97
2019-03-12T08:33:30.625Z,1009.96
2019-03-12T08:34:30.549Z,1009.94
2019-03-12T08:35:30.535Z,1009.98
2019-03-12T08:36:30.535Z,1010.00
2019-03-12T08:37:30.510Z,1009.99
2019-03-12T08:38:30.519Z,1009.92
2019-03-12T08:39:30.541Z,1009.95
2019-03-12T08:40:30.527Z,1009.91
2019-03-12T08:41:30.482Z,1009.91
2019-03-12T08:42:30.488Z,1009.96
2019-03-12T08:43:30.446Z,1009.93
2019-03-12T08:44:30.477Z,1009.92
2019-03-12T08:45:30.427Z,1009.90
2019-03-12T08:46:30.434Z,1009.88
2019-03-12T08:47:30.420Z,1009.96
2019-03-12T08:48:30.393Z,1009.89
2019-03-12T08:49:30.381Z,1009.86
2019-03-12T08:50:30.364Z,1009.88
2019-03-12T08:51:30.441Z,1009.82
2019-03-12T08:52:30.992Z,1009.83
2019-03-12T08:53:30.330Z,1009.84
2019-03-12T08:54:30.344Z,1009.80
2019-03-12T08:55:30.347Z,1009.83
2019-03-12T08:56:32.682Z,1009.79
2019-03-12T08:57:30.289Z,1009.78
2019-03-12T08:58:30.291Z,1009.78
2019-03-12T08:59:30.306Z,1009.80
2019-03-12T09:00:30.263Z,1009.76
2019-03-12T09:01:30.295Z,1009.73
2019-03-12T09:02:30.289Z,1009.71
2019-03-12T09:03:30.273Z,1009.70
2019-03-12T09:04:30.222Z,1009.70
2019-03-12T09:05:30.203Z,1009.70
2019-03-12T09:06:30.210Z,1009.69
2019-03-12T09:07:30.524Z,1009.66
2019-03-12T09:08:30.235Z,1009.64
2019-03-12T09:09:30.153Z,1009.54
2019-03-12T09:10:30.149Z,1009.53
2019-03-12T09:11:30.154Z,1009.56
2019-03-12T09:12:30.173Z,1009.49
2019-03-12T09:13:30.106Z,1009.54
2019-03-12T09:14:30.104Z,1009.42
2019-03-12T09:15:30.116Z,1009.44
2019-03-12T09:16:30.082Z,1009.40
2019-03-12T09:17:30.229Z,1009.36
2019-03-12T09:18:30.066Z,1009.36
2019-03-12T09:19:30.058Z,1009.33
2019-03-12T09:20:30.033Z,1009.32
2019-03-12T09:21:30.019Z,1009.36
2019-03-12T09:22:30.044Z,1009.28
2019-03-12T09:23:30.015Z,1009.28
2019-03-12T09:24:30.068Z,1009.26
2019-03-12T09:25:29.982Z,1009.22
2019-03-12T09:26:29.989Z,1009.15
2019-03-12T09:27:30.044Z,1009.17
2019-03-12T09:28:29.937Z,1009.19
2019-03-12T09:29:29.924Z,1009.20
2019-03-12T09:30:29.929Z,1009.10
2019-03-12T09:31:29.903Z,1009.11
2019-03-12T09:32:29.913Z,1009.09
2019-03-12T09:33:29.955Z,1009.00
2019-03-12T09:34:29.889Z,1008.98
2019-03-12T09:35:29.882Z,1008.96
2019-03-12T09:36:29.853Z,1008.89
2019-03-12T09:37:29.875Z,1008.89
2019-03-12T09:38:29.841Z,1008.91
2019-03-12T09:39:29.812Z,1008.90
2019-03-12T09:40:29.848Z,1008.89
2019-03-12T09:41:29.791Z,1008.83
2019-03-12T09:42:29.801Z,1008.78
2019-03-12T09:43:29.767Z,1008.76
2019-03-12T09:44:29.816Z,1008.72
2019-03-12T09:45:29.752Z,1008.72
2019-03-12T09:46:29.766Z,1008.73
2019-03-12T09:47:29.775Z,1008.74
2019-03-12T09:48:29.712Z,1008.64
2019-03-12T09:49:29.707Z,1008.55
2019-03-12T09:50:29.696Z,1008.55
2019-03-12T09:51:29.679Z,1008.52
2019-03-12T09:52:29.717Z,1008.44
2019-03-12T09:53:29.655Z,1008.37
2019-03-12T09:54:29.644Z,1008.36
2019-03-12T09:55:29.705Z,1008.35
2019-03-12T09:56:29.636Z,1008.31
2019-03-12T09:57:29.642Z,1008.34
2019-03-12T09:58:29.625Z,1008.31
2019-03-12T09:59:29.707Z,1008.25
2019-03-12T10:00:30.636Z,1008.24
2019-03-12T10:01:29.606Z,1008.12
2019-03-12T10:02:29.586Z,1008.08
2019-03-12T10:03:29.598Z,1007.98
2019-03-12T10:04:29.652Z,1007.97
2019-03-12T10:05:29.538Z,1007.94
2019-03-12T10:06:29.516Z,1007.87
2019-03-12T10:07:29.535Z,1007.92
2019-03-12T10:08:29.512Z,1007.87
2019-03-12T10:09:29.596Z,1007.84
2019-03-12T10:10:29.508Z,1007.79
2019-03-12T10:11:29.555Z,1007.79
2019-03-12T10:12:29.649Z,1007.79
2019-03-12T10:13:29.567Z,1007.66
2019-03-12T10:14:29.428Z,1007.66
2019-03-12T10:15:29.527Z,1007.63
2019-03-12T10:16:29.429Z,1007.61
2019-03-12T10:17:29.442Z,1007.62
2019-03-12T10:18:29.398Z,1007.62
2019-03-12T10:19:29.383Z,1007.68
2019-03-12T10:20:29.431Z,1007.61
2019-03-12T10:21:29.395Z,1007.55
2019-03-12T10:22:29.575Z,1007.55
2019-03-12T10:23:29.344Z,1007.54
2019-03-12T10:24:29.359Z,1007.53
2019-03-12T10:25:29.334Z,1007.40
2019-03-12T10:26:29.338Z,1007.46
2019-03-12T10:27:29.302Z,1007.44
2019-03-12T10:28:29.391Z,1007.43
2019-03-12T10:29:29.291Z,1007.33
2019-03-12T10:30:29.371Z,1007.33
2019-03-12T10:31:29.284Z,1007.19
2019-03-12T10:32:29.289Z,1007.23
2019-03-12T10:33:29.278Z,1007.21
2019-03-12T10:34:30.180Z,1007.12
2019-03-12T10:35:29.224Z,1007.14
2019-03-12T10:36:31.036Z,1007.13
2019-03-12T10:37:29.162Z,1007.11
2019-03-12T10:38:29.225Z,1007.13
2019-03-12T10:39:29.249Z,1007.06
2019-03-12T10:40:29.200Z,1007.05
2019-03-12T10:41:29.197Z,1007.08
2019-03-12T10:42:29.108Z,1007.02
2019-03-12T10:43:29.205Z,1007.04
2019-03-12T10:44:29.171Z,1007.03
2019-03-12T10:45:29.120Z,1007.03
2019-03-12T10:46:29.105Z,1007.00
2019-03-12T10:47:29.056Z,1006.90
2019-03-12T10:48:29.112Z,1006.90
2019-03-12T10:49:37.311Z,1006.92
2019-03-12T10:50:30.062Z,1006.82
2019-03-12T10:51:29.041Z,1006.82
2019-03-12T10:52:29.009Z,1006.79
2019-03-12T10:53:29.013Z,1006.71
2019-03-12T10:54:29.019Z,1006.82
2019-03-12T10:55:29.082Z,1006.85
2019-03-12T10:56:29.012Z,1006.69
2019-03-12T10:57:28.953Z,1006.64
2019-03-12T10:58:28.970Z,1006.66
2019-03-12T10:59:28.939Z,1006.58
2019-03-12T11:00:28.937Z,1006.56
2019-03-12T11:01:28.894Z,1006.60
2019-03-12T11:02:28.904Z,1006.59
2019-03-12T11:03:28.905Z,1006.54
2019-03-12T11:04:28.894Z,1006.52
2019-03-12T11:05:29.004Z,1006.53
2019-03-12T11:06:29.014Z,1006.40
2019-03-12T11:07:28.913Z,1006.34
2019-03-12T11:08:28.959Z,1006.39
2019-03-12T11:09:28.946Z,1006.37
2019-03-12T11:10:28.861Z,1006.33
2019-03-12T11:11:28.835Z,1006.29
2019-03-12T11:12:28.777Z,1006.30
2019-03-12T11:13:28.817Z,1006.33
2019-03-12T11:14:28.818Z,1006.27
2019-03-12T11:15:28.798Z,1006.29
2019-03-12T11:16:28.810Z,1006.23
2019-03-12T11:17:28.736Z,1006.20
2019-03-12T11:18:28.815Z,1006.18
2019-03-12T11:19:28.723Z,1006.24
2019-03-12T11:20:28.726Z,1006.18
2019-03-12T11:21:28.705Z,1006.21
2019-03-12T11:22:28.735Z,1006.14
2019-03-12T11:23:28.724Z,1006.16
2019-03-12T11:24:28.656Z,1006.20
2019-03-12T11:25:28.666Z,1006.15
2019-03-12T11:26:28.640Z,1006.24
2019-03-12T11:27:28.637Z,1006.20
2019-03-12T11:28:28.678Z,1006.23
2019-03-12T11:29:30.693Z,1006.18
2019-03-12T11:30:28.593Z,1006.18
2019-03-12T11:31:28.619Z,1006.11
2019-03-12T11:32:28.674Z,1006.16
2019-03-12T11:33:28.640Z,1006.05
2019-03-12T11:34:28.685Z,1005.99
2019-03-12T11:35:38.203Z,1006.03
2019-03-12T11:36:29.533Z,1005.99
2019-03-12T11:37:28.573Z,1005.90
2019-03-12T11:38:28.569Z,1005.94
2019-03-12T11:39:28.623Z,1005.91
2019-03-12T11:40:32.061Z,1006.00
2019-03-12T11:41:28.546Z,1005.85
2019-03-12T11:42:28.490Z,1005.89
2019-03-12T11:43:28.448Z,1005.91
2019-03-12T11:44:28.448Z,1005.76
2019-03-12T11:45:36.291Z,1005.79
2019-03-12T11:46:36.791Z,1005.74
2019-03-12T11:47:29.466Z,1005.70
2019-03-12T11:48:28.409Z,1005.68
2019-03-12T11:49:28.494Z,1005.69
2019-03-12T11:50:28.373Z,1005.64
2019-03-12T11:51:28.400Z,1005.59
2019-03-12T11:52:28.341Z,1005.57
2019-03-12T11:53:28.385Z,1005.58
2019-03-12T11:54:28.608Z,1005.51
2019-03-12T11:55:28.328Z,1005.44
2019-03-12T11:56:28.369Z,1005.44
2019-03-12T11:57:28.286Z,1005.34
2019-03-12T11:58:28.314Z,1005.27
2019-03-12T11:59:28.273Z,1005.28
2019-03-12T12:00:28.606Z,1005.19
2019-03-12T12:01:28.281Z,1005.16
2019-03-12T12:02:28.258Z,1005.14
2019-03-12T12:03:28.308Z,1005.15
2019-03-12T12:04:28.226Z,1005.12
2019-03-12T12:05:28.222Z,1005.07